x

Buoy F01 - West Penobscot Bay (44033) Wave Buoy

5:04 - Mon 22nd Sep 2014 All times are EDT. -4 hours from GMT.

  • Sig Wave height 2.6ft
  • Peak Period 5s
  • Wind
    22mph, 29mph gusts
  • Sea Temp 56°f
  • Luft Temp 62°f
  • Sea Pressure 1005.9mb
  • Buoy F01 - West Penobscot Bay
  • Buoy F01 - West Penobscot Bay

More Historic Weather Station data

Upgrade to MSW Pro to gain access to the past 30 days of data for over 8000 Wavebouys and Weather Stations around the globe.

Join Pro

Comparision Forecast

View Surf forecast
   
Mo 09/22 5:04 2.5ft 5s 22 29 mph 1005.9mb 56f 62f
4:04 2.5ft 5s 20 27 mph 1004.5mb 57f 63f
3:04 5.5ft 11s 25 31 mph 1003.1mb 57f 64f
2:04 2.5ft 5s 22 27 mph 1001.4mb 57f 66f
1:04 4ft 11s 16 22 mph 1000.4mb 56f 62f
12:04 1.6ft 4s 18 20 mph 1000.3mb 56f 60f
11:04 2.5ft 8s 16 18 mph 999.8mb 56f 60f
10:04 1.6ft 6s 11 13 mph 999.6mb 56f 59f
9:04 1.6ft 6s 9 11 mph 999.2mb 56f 58f
8:04 1.6ft 5s 13 16 mph 998.7mb 56f 59f
7:04 1.3ft 5s 7 9 mph 998.5mb 56f 58f
6:04 1.6ft 5s 9
mph
997.8mb 57f 58f
5:04 1.6ft 5s 7
mph
997.3mb 57f 58f
4:04 1.6ft 6s 4 7 mph 997.1mb 57f 58f
3:04 1.6ft 5s 2
mph
996.7mb 57f 58f
2:04 1.6ft 5s 7
mph
997.7mb 57f 58f
1:04 1.6ft 5s 7
mph
998.1mb 56f 58f
12:04 1.6ft 5s  -  mph - 56f -
So 09/21 11:04 1.6ft 5s 4 7 mph 1000.6mb 56f 58f
10:04 1.6ft 5s 7
mph
1001.8mb 56f 59f
9:04 2ft 5s 7 9 mph 1002.8mb 56f 60f
8:04 1.6ft 5s 2
mph
1003.9mb 56f 59f
7:04 2ft 5s 9
mph
1004.6mb 56f 58f
6:04 1.6ft 5s 9 11 mph 1005.9mb 56f 58f
5:04 2ft 5s 11 13 mph 1006.8mb 57f 59f
4:04 2ft 5s 11 13 mph 1007.5mb 57f 60f
3:04 2ft 5s 9 11 mph 1008.6mb 57f 60f
2:04 2ft 5s 9 11 mph 1009.4mb 57f 60f
1:04 2.5ft 4s 16 18 mph 1010.3mb 56f 60f
12:04 2.5ft 8s 16 18 mph 1011.6mb 56f 60f
11:04 1.6ft 5s 13 16 mph 1012.3mb 56f 60f
10:04 1.6ft 5s 7 9 mph 1013.4mb 56f 58f
9:04 2ft 5s 7 9 mph 1014.2mb 56f 58f
8:04 2.5ft 5s 9
mph
1014.1mb 56f 58f
7:04 2ft 5s 7 9 mph 1014.2mb 56f 58f
6:04 2.5ft 5s 7 9 mph 1014.4mb 56f 58f
5:04 2.5ft 5s 9 11 mph 1014.9mb 56f 59f
4:04 2.5ft 5s 9 11 mph 1015.3mb 56f 58f
3:04 2.5ft 5s 11 13 mph 1016.1mb 56f 58f
2:04 3ft 6s 11 13 mph 1016.4mb 56f 58f
1:04 3.5ft 5s 16 20 mph 1016.7mb 56f 59f
12:04 3ft 6s 16 18 mph 1017mb 56f 59f
Sa 09/20 11:04 3.5ft 6s 16 20 mph 1017.4mb 56f 59f
10:04 3.5ft 6s 20 22 mph 1018mb 56f 59f
9:04 3.5ft 5s 20 22 mph 1018.5mb 56f 59f
8:04 3.5ft 6s 18 22 mph 1019mb 56f 59f
7:04 3ft 5s 18 20 mph 1019.3mb 57f 58f
6:04 3.5ft 5s 18 22 mph 1019.7mb 57f 58f
5:04 2.5ft 5s 16 20 mph 1020.4mb 57f 58f
4:04 2.5ft 5s 16 20 mph 1020.9mb 57f 58f
3:04 2.5ft 5s 18 20 mph 1021.4mb 57f 57f
2:04 3.5ft 5s 18 20 mph 1021.8mb 57f 57f
1:04 2.5ft 5s 20 25 mph 1022.6mb 57f 57f
12:04 2.5ft 5s 20 27 mph 1023.5mb 57f 57f
11:04 3ft 5s 20 25 mph 1024mb 57f 56f
10:04 2.5ft 5s 22 27 mph 1025mb 57f 56f
9:04 2.5ft 4s 20 22 mph 1025.3mb 56f 56f
8:04 2ft 4s 18 22 mph 1026mb 56f 55f
7:04 2.5ft 4s 20 22 mph 1026.6mb 57f 55f
6:04 2.5ft 4s 18 22 mph 1026.6mb 56f 55f
5:04 2.5ft 4s 18 20 mph 1027.6mb 56f 55f
4:04 2.5ft 4s 18 20 mph 1027.5mb 56f 54f
3:04 2.5ft 4s 18 22 mph 1027.5mb 56f 53f
2:04 2.5ft 4s 16 20 mph 1028.2mb 56f 53f
1:04 1.6ft 4s 16 20 mph 1028.3mb 57f 53f
12:04 1.3ft 3s 16 20 mph 1028mb 57f 53f
Fr 09/19 11:04 1.3ft 3s 13 16 mph 1028.7mb 57f 53f
10:04 1.6ft 8s 13 16 mph 1028.9mb 57f 53f
9:04 1ft 3s 13 16 mph 1028.6mb 57f 53f
8:04 1.3ft 3s 13 16 mph 1028.6mb 57f 52f
7:04 1ft 3s 13 18 mph 1028mb 57f 52f
6:04 1.3ft 8s 11 13 mph 1027.8mb 57f 52f
5:04 1ft 8s 9 11 mph 1027.9mb 57f 53f
4:04 1ft 8s 2 4 mph 1027.7mb 58f 54f
3:04 1ft 11s 7 9 mph 1028.1mb 57f 52f
2:04 1ft 11s 7 9 mph 1028.2mb 58f 51f
1:04 0.7ft  -  7 9 mph 1028mb 57f 50f
12:04  -   -  7 9 mph 1027.8mb 57f 49f
11:04 1.3ft 3s 13 18 mph 1027.7mb 56f 48f
10:04 1.3ft 3s 16 20 mph 1027.4mb 56f 48f
9:04 1.6ft 3s 16 18 mph 1026.8mb 56f 47f
8:04 1.3ft 3s 13 18 mph 1026.1mb 56f 46f
7:04 1.3ft 3s 13 18 mph 1025.3mb 56f 47f
6:04 1.6ft 3s 13 18 mph 1024.4mb 56f 47f
5:04 1.6ft 3s 16 18 mph 1023.4mb 56f 47f
4:04 2ft 8s 13 16 mph 1022.6mb 56f 47f
3:04 1.6ft 3s 13 16 mph 1022mb 56f 48f
2:04 2ft 3s 16 20 mph 1021.2mb 57f 49f
1:04 2ft 3s 20 25 mph 1020.6mb 57f 50f
12:04 2.5ft 3s 22 27 mph 1019.8mb 57f 51f
Do 09/18 11:04 2.5ft 3s 22 27 mph 1019mb 57f 52f